createdAt,value
2022-09-11T00:00:04.195Z,90.45
2022-09-11T00:00:14.268Z,90.45
2022-09-11T00:00:24.359Z,90.50
2022-09-11T00:00:34.449Z,90.60
2022-09-11T00:00:44.529Z,90.60
2022-09-11T00:00:54.618Z,90.60
2022-09-11T00:01:04.735Z,90.60
2022-09-11T00:01:14.833Z,90.60
2022-09-11T00:01:24.909Z,90.60
2022-09-11T00:01:34.980Z,90.70
2022-09-11T00:01:45.090Z,90.70
2022-09-11T00:01:55.199Z,90.70
2022-09-11T00:02:05.318Z,90.70
2022-09-11T00:02:15.426Z,90.70
2022-09-11T00:02:25.525Z,90.70
2022-09-11T00:02:35.677Z,90.70
2022-09-11T00:02:45.787Z,90.70
2022-09-11T00:02:55.926Z,90.70
2022-09-11T00:03:06.075Z,90.70
2022-09-11T00:03:15.989Z,90.70
2022-09-11T00:03:26.068Z,90.80
2022-09-11T00:03:36.140Z,90.80
2022-09-11T00:03:46.218Z,90.80
2022-09-11T00:03:56.288Z,90.80
2022-09-11T00:04:06.380Z,90.80
2022-09-11T00:04:16.459Z,90.91
2022-09-11T00:04:26.539Z,90.91
2022-09-11T00:04:36.619Z,90.91
2022-09-11T00:04:46.707Z,91.00
2022-09-11T00:04:56.795Z,91.00
2022-09-11T00:05:06.899Z,91.00
2022-09-11T00:05:16.987Z,91.00
2022-09-11T00:05:27.057Z,91.00
2022-09-11T00:05:37.138Z,91.11
2022-09-11T00:05:47.209Z,91.11
2022-09-11T00:05:57.288Z,91.11
2022-09-11T00:06:07.381Z,91.11
2022-09-11T00:06:27.725Z,91.11
2022-09-11T00:06:30.109Z,91.20
2022-09-11T00:06:38.469Z,91.20
2022-09-11T00:06:48.556Z,91.20
2022-09-11T00:06:58.638Z,91.20
2022-09-11T00:07:08.718Z,91.20
2022-09-11T00:07:18.798Z,91.20
2022-09-11T00:07:28.877Z,91.20
2022-09-11T00:07:38.971Z,91.20
2022-09-11T00:07:49.039Z,91.31
2022-09-11T00:07:59.139Z,91.31
2022-09-11T00:08:09.207Z,91.31
2022-09-11T00:08:19.925Z,91.31
2022-09-11T00:08:29.308Z,91.31
2022-09-11T00:08:39.388Z,91.41
2022-09-11T00:08:49.468Z,91.41
2022-09-11T00:08:59.558Z,91.41
2022-09-11T00:09:09.627Z,91.41
2022-09-11T00:09:19.707Z,91.41
2022-09-11T00:09:29.798Z,91.41
2022-09-11T00:09:39.875Z,91.41
2022-09-11T00:09:49.948Z,91.41
2022-09-11T00:10:00.031Z,91.41
2022-09-11T00:10:10.108Z,91.41
2022-09-11T00:10:20.195Z,91.41
2022-09-11T00:10:30.277Z,91.41
2022-09-11T00:10:40.357Z,91.41
2022-09-11T00:10:50.445Z,91.41
2022-09-11T00:11:00.548Z,91.51
2022-09-11T00:11:10.618Z,91.51
2022-09-11T00:11:20.697Z,91.51
2022-09-11T00:11:30.798Z,91.51
2022-09-11T00:11:40.878Z,91.51
2022-09-11T00:11:50.958Z,91.51
2022-09-11T00:12:01.046Z,91.51
2022-09-11T00:12:11.124Z,91.51
2022-09-11T00:12:21.207Z,91.61
2022-09-11T00:12:31.286Z,91.61
2022-09-11T00:12:41.375Z,91.61
2022-09-11T00:12:51.456Z,91.61
2022-09-11T00:13:01.547Z,91.61
2022-09-11T00:13:11.646Z,91.61
2022-09-11T00:13:21.727Z,91.61
2022-09-11T00:13:31.825Z,91.61
2022-09-11T00:13:41.994Z,91.61
2022-09-11T00:13:51.918Z,91.61
2022-09-11T00:14:02.005Z,91.61
2022-09-11T00:14:12.077Z,91.61
2022-09-11T00:14:22.178Z,91.61
2022-09-11T00:14:32.258Z,91.51
2022-09-11T00:14:42.348Z,91.51
2022-09-11T00:14:52.427Z,91.51
2022-09-11T00:15:02.508Z,91.51
2022-09-11T00:15:12.597Z,91.51
2022-09-11T00:15:22.658Z,91.51
2022-09-11T00:15:32.757Z,91.51
2022-09-11T00:15:42.828Z,91.51
2022-09-11T00:15:52.915Z,91.51
2022-09-11T00:16:03.001Z,91.51
2022-09-11T00:16:13.256Z,91.51
2022-09-11T00:16:23.254Z,91.51
2022-09-11T00:16:33.227Z,91.51
2022-09-11T00:16:43.297Z,91.51
2022-09-11T00:16:53.379Z,91.51
2022-09-11T00:17:03.449Z,91.51
2022-09-11T00:17:13.530Z,91.51
2022-09-11T00:17:23.607Z,91.51
2022-09-11T00:17:33.689Z,91.51
2022-09-11T00:17:43.767Z,91.51
2022-09-11T00:17:53.856Z,91.51
2022-09-11T00:18:03.957Z,91.51
2022-09-11T00:18:14.048Z,91.51
2022-09-11T00:18:24.127Z,91.51
2022-09-11T00:18:34.226Z,91.51
2022-09-11T00:18:44.309Z,91.51
2022-09-11T00:18:54.405Z,91.51
2022-09-11T00:19:04.496Z,91.51
2022-09-11T00:19:14.579Z,91.51
2022-09-11T00:19:24.667Z,91.51
2022-09-11T00:19:34.796Z,91.51
2022-09-11T00:19:44.877Z,91.51
2022-09-11T00:19:54.959Z,91.51
2022-09-11T00:20:05.035Z,91.51
2022-09-11T00:20:15.135Z,91.51
2022-09-11T00:20:25.227Z,91.51
2022-09-11T00:20:35.327Z,91.51
2022-09-11T00:20:45.407Z,91.51
2022-09-11T00:20:58.108Z,91.51
2022-09-11T00:21:05.637Z,91.51
2022-09-11T00:21:15.758Z,91.51
2022-09-11T00:21:25.847Z,91.51
2022-09-11T00:21:35.937Z,91.51
2022-09-11T00:21:46.030Z,91.51
2022-09-11T00:21:56.107Z,91.51
2022-09-11T00:22:06.320Z,91.41
2022-09-11T00:22:16.279Z,91.41
2022-09-11T00:22:26.357Z,91.41
2022-09-11T00:22:36.417Z,91.41
2022-09-11T00:22:46.508Z,91.41
2022-09-11T00:22:56.588Z,91.41
2022-09-11T00:23:06.685Z,91.41
2022-09-11T00:23:16.767Z,91.41
2022-09-11T00:23:26.837Z,91.41
2022-09-11T00:23:36.922Z,91.41
2022-09-11T00:23:47.004Z,91.41
2022-09-11T00:23:57.077Z,91.41
2022-09-11T00:24:07.165Z,91.41
2022-09-11T00:24:17.258Z,91.31
2022-09-11T00:24:27.427Z,91.31
2022-09-11T00:24:37.505Z,91.31
2022-09-11T00:24:47.567Z,91.31
2022-09-11T00:24:57.647Z,91.31
2022-09-11T00:25:07.737Z,91.31
2022-09-11T00:25:17.797Z,91.31
2022-09-11T00:25:27.877Z,91.31
2022-09-11T00:25:37.957Z,91.31
2022-09-11T00:25:48.039Z,91.31
2022-09-11T00:25:58.400Z,91.31
2022-09-11T00:26:08.227Z,91.31
2022-09-11T00:26:18.305Z,91.31
2022-09-11T00:26:28.390Z,91.31
2022-09-11T00:26:38.473Z,91.31
2022-09-11T00:26:48.547Z,91.31
2022-09-11T00:26:58.620Z,91.31
2022-09-11T00:27:08.698Z,91.31
2022-09-11T00:27:18.770Z,91.31
2022-09-11T00:27:28.858Z,91.41
2022-09-11T00:27:38.944Z,91.41
2022-09-11T00:27:49.034Z,91.41
2022-09-11T00:27:59.117Z,91.41
2022-09-11T00:28:09.199Z,91.41
2022-09-11T00:28:19.289Z,91.41
2022-09-11T00:28:29.369Z,91.41
2022-09-11T00:28:39.449Z,91.41
2022-09-11T00:28:49.527Z,91.41
2022-09-11T00:28:59.618Z,91.51
2022-09-11T00:29:09.707Z,91.55
2022-09-11T00:29:19.778Z,91.55
2022-09-11T00:29:29.847Z,91.55
2022-09-11T00:29:39.938Z,91.55
2022-09-11T00:29:50.018Z,91.66
2022-09-11T00:30:00.108Z,91.66
2022-09-11T00:30:10.186Z,91.75
2022-09-11T00:30:20.287Z,91.75
2022-09-11T00:30:30.368Z,91.75
2022-09-11T00:30:40.438Z,91.86
2022-09-11T00:30:50.525Z,91.75
2022-09-11T00:31:00.643Z,91.86
2022-09-11T00:31:10.636Z,91.86
2022-09-11T00:31:20.783Z,91.86
2022-09-11T00:31:30.893Z,91.86
2022-09-11T00:31:41.005Z,91.96
2022-09-11T00:31:51.075Z,91.96
2022-09-11T00:32:01.148Z,91.96
2022-09-11T00:32:11.228Z,92.06
2022-09-11T00:32:21.323Z,92.06
2022-09-11T00:32:31.387Z,92.06
2022-09-11T00:32:41.477Z,92.06
2022-09-11T00:32:51.569Z,92.16
2022-09-11T00:33:01.648Z,92.16
2022-09-11T00:33:11.717Z,92.16
2022-09-11T00:33:21.787Z,92.16
2022-09-11T00:33:31.925Z,92.16
2022-09-11T00:33:41.997Z,92.16
2022-09-11T00:33:51.967Z,92.16
2022-09-11T00:34:02.056Z,92.26
2022-09-11T00:34:12.139Z,92.26
2022-09-11T00:34:22.217Z,92.26
2022-09-11T00:34:32.315Z,92.26
2022-09-11T00:34:42.398Z,92.26
2022-09-11T00:34:52.488Z,92.26
2022-09-11T00:35:02.574Z,92.26
2022-09-11T00:35:12.647Z,92.26
2022-09-11T00:35:22.709Z,92.26
2022-09-11T00:35:32.797Z,92.36
2022-09-11T00:35:42.877Z,92.36
2022-09-11T00:35:52.958Z,92.36
2022-09-11T00:36:03.018Z,92.36
2022-09-11T00:36:13.096Z,92.36
2022-09-11T00:36:23.157Z,92.36
2022-09-11T00:36:33.237Z,92.36
2022-09-11T00:36:43.297Z,92.36
2022-09-11T00:36:53.389Z,92.36
2022-09-11T00:37:03.440Z,92.36
2022-09-11T00:37:13.516Z,92.36
2022-09-11T00:37:23.577Z,92.36
2022-09-11T00:37:33.649Z,92.36
2022-09-11T00:37:43.837Z,92.36
2022-09-11T00:37:53.935Z,92.36
2022-09-11T00:38:03.997Z,92.36
2022-09-11T00:38:17.226Z,92.36
2022-09-11T00:38:24.188Z,92.47
2022-09-11T00:38:34.258Z,92.47
2022-09-11T00:38:44.338Z,92.47
2022-09-11T00:38:54.408Z,92.36
2022-09-11T00:39:04.478Z,92.36
2022-09-11T00:39:14.556Z,92.36
2022-09-11T00:39:24.638Z,92.36
2022-09-11T00:39:34.780Z,92.36
2022-09-11T00:39:44.916Z,92.36
2022-09-11T00:39:55.059Z,92.36
2022-09-11T00:40:05.169Z,92.36
2022-09-11T00:40:15.281Z,92.36
2022-09-11T00:40:25.347Z,92.36
2022-09-11T00:40:35.428Z,92.36
2022-09-11T00:40:45.498Z,92.36
2022-09-11T00:40:55.558Z,92.36
2022-09-11T00:41:05.636Z,92.36
2022-09-11T00:41:15.707Z,92.36
2022-09-11T00:41:25.778Z,92.26
2022-09-11T00:41:35.858Z,92.26
2022-09-11T00:41:45.946Z,92.26
2022-09-11T00:41:56.018Z,92.26
2022-09-11T00:42:06.087Z,92.26
2022-09-11T00:42:16.159Z,92.26
2022-09-11T00:42:26.239Z,92.26
2022-09-11T00:42:36.347Z,92.26
2022-09-11T00:42:46.425Z,92.26
2022-09-11T00:42:56.517Z,92.26
2022-09-11T00:43:06.587Z,92.26
2022-09-11T00:43:16.711Z,92.26
2022-09-11T00:43:26.798Z,92.26
2022-09-11T00:43:36.877Z,92.26
2022-09-11T00:43:46.955Z,92.26
2022-09-11T00:43:57.027Z,92.26
2022-09-11T00:44:07.097Z,92.26
2022-09-11T00:44:17.186Z,92.26
2022-09-11T00:44:27.227Z,92.26
2022-09-11T00:44:37.328Z,92.26
2022-09-11T00:44:47.440Z,92.26
2022-09-11T00:44:57.557Z,92.26
2022-09-11T00:45:07.636Z,92.26
2022-09-11T00:45:17.729Z,92.26
2022-09-11T00:45:27.888Z,92.26
2022-09-11T00:45:37.861Z,92.26
2022-09-11T00:45:47.977Z,92.26
2022-09-11T00:45:58.109Z,92.26
2022-09-11T00:46:08.246Z,92.26
2022-09-11T00:46:18.337Z,92.26
2022-09-11T00:46:28.418Z,92.26
2022-09-11T00:46:38.507Z,92.26
2022-09-11T00:46:48.598Z,92.26
2022-09-11T00:46:58.689Z,92.26
2022-09-11T00:47:08.776Z,92.26
2022-09-11T00:47:18.876Z,92.26
2022-09-11T00:47:28.967Z,92.26
2022-09-11T00:47:39.056Z,92.26
2022-09-11T00:47:49.145Z,92.26
2022-09-11T00:48:00.837Z,92.26
2022-09-11T00:48:09.389Z,92.26
2022-09-11T00:48:19.469Z,92.26
2022-09-11T00:48:29.567Z,92.26
2022-09-11T00:48:39.664Z,92.26
2022-09-11T00:48:49.758Z,92.16
2022-09-11T00:48:59.857Z,92.16
2022-09-11T00:49:09.967Z,92.16
2022-09-11T00:49:20.070Z,92.16
2022-09-11T00:49:30.156Z,92.16
2022-09-11T00:49:40.296Z,92.16
2022-09-11T00:49:50.387Z,92.16
2022-09-11T00:50:00.479Z,92.16
2022-09-11T00:50:10.567Z,92.06
2022-09-11T00:50:20.667Z,92.06
2022-09-11T00:50:30.757Z,92.06
2022-09-11T00:50:40.867Z,92.06
2022-09-11T00:50:50.954Z,92.06
2022-09-11T00:51:01.046Z,92.06
2022-09-11T00:51:11.133Z,92.06
2022-09-11T00:51:21.234Z,92.06
2022-09-11T00:51:31.317Z,92.06
2022-09-11T00:51:41.414Z,92.06
2022-09-11T00:51:51.497Z,92.06
2022-09-11T00:52:01.583Z,92.06
2022-09-11T00:52:11.658Z,92.16
2022-09-11T00:52:21.778Z,92.16
2022-09-11T00:52:31.868Z,92.16
2022-09-11T00:52:41.996Z,92.26
2022-09-11T00:52:53.220Z,92.26
2022-09-11T00:53:02.210Z,92.26
2022-09-11T00:53:12.315Z,92.26
2022-09-11T00:53:22.397Z,92.26
2022-09-11T00:53:32.488Z,92.26
2022-09-11T00:53:42.657Z,92.36
2022-09-11T00:53:52.687Z,92.36
2022-09-11T00:54:02.787Z,92.36
2022-09-11T00:54:12.888Z,92.36
2022-09-11T00:54:22.978Z,92.47
2022-09-11T00:54:33.076Z,92.47
2022-09-11T00:54:43.178Z,92.47
2022-09-11T00:54:53.276Z,92.47
2022-09-11T00:55:03.371Z,92.57
2022-09-11T00:55:13.462Z,92.57
2022-09-11T00:55:23.566Z,92.57
2022-09-11T00:55:33.667Z,92.57
2022-09-11T00:55:43.777Z,92.67
2022-09-11T00:55:53.870Z,92.67
2022-09-11T00:56:03.947Z,92.67
2022-09-11T00:56:14.038Z,92.67
2022-09-11T00:56:24.131Z,92.67
2022-09-11T00:56:34.217Z,92.67
2022-09-11T00:56:44.357Z,92.67
2022-09-11T00:56:54.405Z,92.67
2022-09-11T00:57:04.478Z,92.71
2022-09-11T00:57:14.549Z,92.67
2022-09-11T00:57:24.629Z,92.67
2022-09-11T00:57:34.709Z,92.67
2022-09-11T00:57:44.778Z,92.77
2022-09-11T00:57:54.858Z,92.77
2022-09-11T00:58:04.938Z,92.77
2022-09-11T00:58:15.016Z,92.82
2022-09-11T00:58:25.086Z,92.77
2022-09-11T00:58:35.166Z,92.82
2022-09-11T00:58:45.237Z,92.77
2022-09-11T00:58:55.318Z,92.77
2022-09-11T00:59:05.397Z,92.82
2022-09-11T00:59:15.459Z,92.82
2022-09-11T00:59:25.546Z,92.82
2022-09-11T00:59:35.614Z,92.77
2022-09-11T00:59:47.147Z,92.82
2022-09-11T00:59:55.858Z,92.82
2022-09-11T01:00:05.937Z,92.82
2022-09-11T01:00:16.019Z,92.82
2022-09-11T01:00:26.087Z,92.82
2022-09-11T01:00:36.196Z,92.82
2022-09-11T01:00:46.287Z,92.91
2022-09-11T01:00:56.406Z,92.82
2022-09-11T01:01:06.561Z,92.82
2022-09-11T01:01:16.690Z,92.82
2022-09-11T01:01:26.777Z,92.82
2022-09-11T01:01:36.875Z,92.82
2022-09-11T01:01:46.997Z,92.82
2022-09-11T01:01:57.198Z,92.82
2022-09-11T01:02:07.141Z,92.82
2022-09-11T01:02:17.296Z,92.82
2022-09-11T01:02:27.671Z,92.82
2022-09-11T01:02:37.548Z,92.82
2022-09-11T01:02:47.636Z,92.82
2022-09-11T01:02:57.727Z,92.82
2022-09-11T01:03:08.427Z,92.82
2022-09-11T01:03:17.816Z,92.82
2022-09-11T01:03:27.889Z,92.77
2022-09-11T01:03:37.989Z,92.82
2022-09-11T01:03:48.068Z,92.82
2022-09-11T01:03:58.156Z,92.82
2022-09-11T01:04:08.237Z,92.82
2022-09-11T01:04:18.315Z,92.82
2022-09-11T01:04:28.386Z,92.91
2022-09-11T01:04:38.465Z,92.91
2022-09-11T01:04:48.547Z,92.91
2022-09-11T01:04:58.627Z,92.91
2022-09-11T01:05:08.707Z,92.91
2022-09-11T01:05:18.797Z,92.91
2022-09-11T01:05:28.867Z,92.91
2022-09-11T01:05:38.957Z,92.91
2022-09-11T01:05:49.077Z,92.91
2022-09-11T01:05:59.167Z,92.91
2022-09-11T01:06:09.245Z,92.91
2022-09-11T01:06:19.319Z,92.91
2022-09-11T01:06:29.412Z,92.87
2022-09-11T01:06:39.477Z,92.91
2022-09-11T01:06:49.566Z,92.91
2022-09-11T01:06:59.646Z,92.91
2022-09-11T01:07:09.724Z,93.02
2022-09-11T01:07:19.817Z,93.02
2022-09-11T01:07:29.906Z,93.02
2022-09-11T01:07:39.975Z,93.02
2022-09-11T01:07:50.068Z,93.02
2022-09-11T01:08:00.135Z,93.02
2022-09-11T01:08:10.216Z,93.02
2022-09-11T01:08:20.297Z,93.02
2022-09-11T01:08:30.375Z,93.02
2022-09-11T01:08:40.459Z,93.02
2022-09-11T01:08:50.527Z,93.02
2022-09-11T01:09:00.598Z,93.02
2022-09-11T01:09:10.667Z,93.02
2022-09-11T01:09:20.736Z,92.91
2022-09-11T01:09:30.817Z,92.91
2022-09-11T01:09:40.907Z,92.91
2022-09-11T01:09:50.996Z,92.91
2022-09-11T01:10:01.065Z,92.91
2022-09-11T01:10:11.146Z,92.91
2022-09-11T01:10:21.232Z,92.82
2022-09-11T01:10:31.299Z,92.82
2022-09-11T01:10:41.377Z,92.82
2022-09-11T01:10:51.456Z,92.82
2022-09-11T01:11:01.538Z,92.82
2022-09-11T01:11:11.597Z,92.82
2022-09-11T01:11:21.686Z,92.82
2022-09-11T01:11:31.765Z,92.82
2022-09-11T01:11:41.837Z,92.82
2022-09-11T01:11:51.918Z,92.82
2022-09-11T01:12:01.997Z,92.82
2022-09-11T01:12:12.086Z,92.82
2022-09-11T01:12:22.157Z,92.91
2022-09-11T01:12:32.248Z,92.82
2022-09-11T01:12:42.327Z,92.91
2022-09-11T01:12:52.417Z,92.91
2022-09-11T01:13:02.497Z,92.91
2022-09-11T01:13:12.590Z,92.91
2022-09-11T01:13:22.676Z,92.91
2022-09-11T01:13:32.777Z,92.91
2022-09-11T01:13:43.011Z,92.91
2022-09-11T01:13:53.007Z,92.91
2022-09-11T01:14:03.106Z,92.91
2022-09-11T01:14:13.194Z,92.91
2022-09-11T01:14:23.287Z,92.91
2022-09-11T01:14:34.847Z,93.02
2022-09-11T01:14:43.427Z,93.02
2022-09-11T01:14:53.548Z,93.02
2022-09-11T01:15:03.656Z,93.02
2022-09-11T01:15:13.728Z,93.02
2022-09-11T01:15:23.800Z,93.12
2022-09-11T01:15:33.893Z,93.12
2022-09-11T01:15:43.985Z,93.12
2022-09-11T01:15:54.116Z,93.12
2022-09-11T01:16:04.363Z,93.12
2022-09-11T01:16:14.364Z,93.12
2022-09-11T01:16:24.474Z,93.12
2022-09-11T01:16:34.571Z,93.12
2022-09-11T01:16:44.640Z,93.22
2022-09-11T01:16:54.717Z,93.12
2022-09-11T01:17:04.808Z,93.22
2022-09-11T01:17:14.904Z,93.22
2022-09-11T01:17:24.987Z,93.12
2022-09-11T01:17:35.076Z,93.22
2022-09-11T01:17:45.196Z,93.22
2022-09-11T01:17:55.316Z,93.22
2022-09-11T01:18:05.394Z,93.22
2022-09-11T01:18:15.487Z,93.22
2022-09-11T01:18:31.175Z,93.22
2022-09-11T01:18:35.784Z,93.22
2022-09-11T01:18:45.847Z,93.22
2022-09-11T01:18:55.917Z,93.22
2022-09-11T01:19:05.976Z,93.22
2022-09-11T01:19:16.045Z,93.22
2022-09-11T01:19:26.116Z,93.22
2022-09-11T01:19:36.184Z,93.22
2022-09-11T01:19:46.255Z,93.22
2022-09-11T01:19:56.316Z,93.22
2022-09-11T01:20:06.387Z,93.22
2022-09-11T01:20:16.466Z,93.22
2022-09-11T01:20:26.538Z,93.22
2022-09-11T01:20:36.616Z,93.22
2022-09-11T01:20:46.665Z,93.22
2022-09-11T01:20:56.726Z,93.12
2022-09-11T01:21:06.807Z,93.12
2022-09-11T01:21:16.877Z,93.12
2022-09-11T01:21:29.338Z,93.12
2022-09-11T01:21:37.047Z,93.22
2022-09-11T01:21:47.105Z,93.22
2022-09-11T01:21:57.174Z,93.22
2022-09-11T01:22:07.237Z,93.22
2022-09-11T01:22:17.306Z,93.22
2022-09-11T01:22:27.385Z,93.22
2022-09-11T01:22:37.436Z,93.22
2022-09-11T01:22:47.498Z,93.22
2022-09-11T01:22:57.584Z,93.22
2022-09-11T01:23:07.648Z,93.22
2022-09-11T01:23:17.686Z,93.22
2022-09-11T01:23:27.739Z,93.22
2022-09-11T01:23:37.906Z,93.22
2022-09-11T01:23:47.811Z,93.22
2022-09-11T01:23:57.886Z,93.22
2022-09-11T01:24:07.937Z,93.22
2022-09-11T01:24:17.996Z,93.22
2022-09-11T01:24:28.156Z,93.22
2022-09-11T01:24:38.207Z,93.32
2022-09-11T01:24:48.269Z,93.22
2022-09-11T01:24:58.337Z,93.22
2022-09-11T01:25:08.367Z,93.22
2022-09-11T01:25:18.414Z,93.32
2022-09-11T01:25:28.456Z,93.32
2022-09-11T01:25:38.516Z,93.32
2022-09-11T01:25:48.571Z,93.32
2022-09-11T01:25:58.627Z,93.32
2022-09-11T01:26:08.870Z,93.32
2022-09-11T01:26:18.808Z,93.32
2022-09-11T01:26:28.876Z,93.32
2022-09-11T01:26:38.905Z,93.32
2022-09-11T01:26:48.947Z,93.32
2022-09-11T01:26:59.003Z,93.32
2022-09-11T01:27:09.037Z,93.22
2022-09-11T01:27:19.073Z,93.22
2022-09-11T01:27:29.136Z,93.22
2022-09-11T01:27:39.196Z,93.22
2022-09-11T01:27:49.237Z,93.22
2022-09-11T01:27:59.304Z,93.22
2022-09-11T01:28:09.338Z,93.22
2022-09-11T01:28:19.385Z,93.22
2022-09-11T01:28:29.436Z,93.22
2022-09-11T01:28:39.486Z,93.22
2022-09-11T01:28:49.527Z,93.22
2022-09-11T01:28:59.575Z,93.22
2022-09-11T01:29:09.614Z,93.12
2022-09-11T01:29:19.668Z,93.22
2022-09-11T01:29:29.734Z,93.22
2022-09-11T01:29:39.785Z,93.12
2022-09-11T01:29:49.830Z,93.12
2022-09-11T01:29:59.873Z,93.12
2022-09-11T01:30:11.880Z,93.12
2022-09-11T01:30:20.209Z,93.12
2022-09-11T01:30:30.260Z,93.22
2022-09-11T01:30:40.331Z,93.22
2022-09-11T01:30:50.396Z,93.12
2022-09-11T01:31:00.486Z,93.12
2022-09-11T01:31:10.618Z,93.12
2022-09-11T01:31:20.705Z,93.22
2022-09-11T01:31:30.799Z,93.12
2022-09-11T01:31:40.913Z,93.22
2022-09-11T01:31:51.006Z,93.22
2022-09-11T01:32:01.106Z,93.12
2022-09-11T01:32:11.176Z,93.12
2022-09-11T01:32:21.257Z,93.12
2022-09-11T01:32:31.325Z,93.12
2022-09-11T01:32:41.386Z,93.12
2022-09-11T01:32:51.436Z,93.12
2022-09-11T01:33:01.528Z,93.12
2022-09-11T01:33:11.586Z,93.12
2022-09-11T01:33:21.646Z,93.12
2022-09-11T01:33:31.699Z,93.12
2022-09-11T01:33:41.896Z,93.12
2022-09-11T01:33:51.819Z,93.12
2022-09-11T01:34:01.867Z,93.12
2022-09-11T01:34:11.927Z,93.12
2022-09-11T01:34:22.003Z,93.12
2022-09-11T01:34:32.067Z,93.12
2022-09-11T01:34:42.154Z,93.12
2022-09-11T01:34:52.207Z,93.12
2022-09-11T01:35:02.276Z,93.12
2022-09-11T01:35:12.336Z,93.12
2022-09-11T01:35:22.406Z,93.12
2022-09-11T01:35:32.467Z,93.12
2022-09-11T01:35:42.556Z,93.12
2022-09-11T01:35:52.606Z,93.12
2022-09-11T01:36:02.676Z,93.12
2022-09-11T01:36:12.745Z,93.12
2022-09-11T01:36:22.807Z,93.12
2022-09-11T01:36:32.856Z,93.12
2022-09-11T01:36:42.930Z,93.12
2022-09-11T01:36:52.996Z,93.12
2022-09-11T01:37:03.044Z,93.02
2022-09-11T01:37:13.096Z,93.02
2022-09-11T01:37:23.165Z,93.02
2022-09-11T01:37:33.216Z,93.02
2022-09-11T01:37:43.276Z,93.02
2022-09-11T01:37:53.336Z,93.02
2022-09-11T01:38:03.424Z,93.02
2022-09-11T01:38:13.485Z,93.02
2022-09-11T01:38:23.546Z,93.02
2022-09-11T01:38:33.598Z,93.02
2022-09-11T01:38:43.676Z,92.91
2022-09-11T01:38:53.737Z,92.91
2022-09-11T01:39:03.795Z,93.02
2022-09-11T01:39:13.856Z,93.02
2022-09-11T01:39:23.925Z,93.02
2022-09-11T01:39:33.995Z,92.91
2022-09-11T01:39:44.145Z,92.91
2022-09-11T01:39:54.266Z,92.91
2022-09-11T01:40:04.373Z,92.91
2022-09-11T01:40:14.464Z,92.91
2022-09-11T01:40:24.563Z,93.02
2022-09-11T01:40:34.634Z,93.02
2022-09-11T01:40:44.684Z,93.02
2022-09-11T01:40:54.736Z,93.02
2022-09-11T01:41:04.809Z,93.02
2022-09-11T01:41:14.877Z,93.02
2022-09-11T01:41:24.936Z,93.02
2022-09-11T01:41:35.016Z,93.02
2022-09-11T01:41:45.074Z,93.12
2022-09-11T01:41:55.147Z,93.12
2022-09-11T01:42:05.205Z,93.12
2022-09-11T01:42:15.276Z,93.12
2022-09-11T01:42:25.346Z,93.12
2022-09-11T01:42:35.408Z,93.12
2022-09-11T01:42:45.466Z,93.12
2022-09-11T01:42:55.534Z,93.12
2022-09-11T01:43:05.598Z,93.12
2022-09-11T01:43:15.676Z,93.12
2022-09-11T01:43:25.733Z,93.12
2022-09-11T01:43:35.795Z,93.12
2022-09-11T01:43:45.846Z,93.12
2022-09-11T01:43:55.915Z,93.12
2022-09-11T01:44:05.976Z,93.12
2022-09-11T01:44:16.025Z,93.12
2022-09-11T01:44:26.037Z,93.12
2022-09-11T01:44:36.107Z,93.22
2022-09-11T01:44:46.166Z,93.12
2022-09-11T01:44:56.233Z,93.12
2022-09-11T01:45:06.313Z,93.22
2022-09-11T01:45:16.385Z,93.22
2022-09-11T01:45:26.477Z,93.12
2022-09-11T01:45:36.562Z,93.22
2022-09-11T01:45:46.692Z,93.22
2022-09-11T01:45:57.632Z,93.22
2022-09-11T01:46:07.048Z,93.22
2022-09-11T01:46:17.125Z,93.22
2022-09-11T01:46:27.216Z,93.12
2022-09-11T01:46:37.276Z,93.12
2022-09-11T01:46:47.334Z,93.12
2022-09-11T01:46:57.453Z,93.12
2022-09-11T01:47:07.517Z,93.12
2022-09-11T01:47:17.568Z,93.12
2022-09-11T01:47:27.615Z,93.12
2022-09-11T01:47:37.696Z,93.12
2022-09-11T01:47:47.766Z,93.12
2022-09-11T01:47:57.816Z,93.12
2022-09-11T01:48:07.884Z,93.02
2022-09-11T01:48:17.937Z,93.02
2022-09-11T01:48:28.011Z,92.91
2022-09-11T01:48:38.076Z,92.91
2022-09-11T01:48:48.135Z,92.91
2022-09-11T01:48:58.204Z,92.91
2022-09-11T01:49:08.264Z,92.91
2022-09-11T01:49:18.315Z,92.91
2022-09-11T01:49:28.384Z,92.91
2022-09-11T01:49:38.435Z,92.91
2022-09-11T01:49:48.495Z,92.91
2022-09-11T01:49:58.536Z,92.91
2022-09-11T01:50:08.603Z,92.91
2022-09-11T01:50:18.655Z,92.91
2022-09-11T01:50:28.716Z,92.91
2022-09-11T01:50:38.784Z,92.91
2022-09-11T01:50:48.845Z,92.91
2022-09-11T01:50:58.907Z,92.91
2022-09-11T01:51:08.975Z,92.91
2022-09-11T01:51:19.026Z,93.02
2022-09-11T01:51:29.094Z,93.02
2022-09-11T01:51:39.147Z,93.02
2022-09-11T01:51:49.195Z,93.02
2022-09-11T01:51:59.257Z,93.02
2022-09-11T01:52:09.317Z,93.02
2022-09-11T01:52:19.386Z,93.02
2022-09-11T01:52:29.457Z,93.02
2022-09-11T01:52:39.533Z,93.02
2022-09-11T01:52:49.589Z,93.02
2022-09-11T01:52:59.655Z,93.02
2022-09-11T01:53:09.716Z,93.02
2022-09-11T01:53:19.784Z,93.02
2022-09-11T01:53:29.837Z,93.02
2022-09-11T01:53:39.914Z,93.02
2022-09-11T01:53:50.477Z,93.02
2022-09-11T01:54:00.098Z,93.02
2022-09-11T01:54:10.145Z,93.02
2022-09-11T01:54:20.206Z,93.02
2022-09-11T01:54:30.280Z,93.06
2022-09-11T01:54:40.336Z,93.06
2022-09-11T01:54:50.405Z,93.06
2022-09-11T01:55:00.456Z,93.02
2022-09-11T01:55:10.514Z,93.06
2022-09-11T01:55:20.594Z,93.06
2022-09-11T01:55:30.655Z,93.16
2022-09-11T01:55:40.733Z,93.16
2022-09-11T01:55:50.794Z,93.16
2022-09-11T01:56:00.866Z,93.16
2022-09-11T01:56:10.923Z,93.16
2022-09-11T01:56:20.995Z,93.16
2022-09-11T01:56:31.055Z,93.16
2022-09-11T01:56:41.123Z,93.16
2022-09-11T01:56:51.175Z,93.16
2022-09-11T01:57:01.237Z,93.26
2022-09-11T01:57:11.308Z,93.26
2022-09-11T01:57:21.364Z,93.26
2022-09-11T01:57:31.432Z,93.26
2022-09-11T01:57:41.511Z,93.26
2022-09-11T01:57:51.578Z,93.26
2022-09-11T01:58:01.636Z,93.26
2022-09-11T01:58:11.693Z,93.26
2022-09-11T01:58:21.769Z,93.26
2022-09-11T01:58:31.825Z,93.26
2022-09-11T01:58:41.897Z,93.26
2022-09-11T01:58:51.964Z,93.26
2022-09-11T01:59:02.012Z,93.26
2022-09-11T01:59:12.241Z,93.26
2022-09-11T01:59:22.314Z,93.26
2022-09-11T01:59:32.376Z,93.26
2022-09-11T01:59:42.435Z,93.26
2022-09-11T01:59:52.507Z,93.26
2022-09-11T02:00:02.573Z,93.26
2022-09-11T02:00:12.633Z,93.26
2022-09-11T02:00:22.706Z,93.26
2022-09-11T02:00:32.776Z,93.26
2022-09-11T02:00:42.903Z,93.26
2022-09-11T02:00:52.991Z,93.26
2022-09-11T02:01:03.102Z,93.26
2022-09-11T02:01:13.163Z,93.26
2022-09-11T02:01:23.228Z,93.26
2022-09-11T02:01:33.293Z,93.26
2022-09-11T02:01:43.393Z,93.26
2022-09-11T02:01:53.467Z,93.26
2022-09-11T02:02:03.575Z,93.16
2022-09-11T02:02:13.651Z,93.16
2022-09-11T02:02:23.760Z,93.16
2022-09-11T02:02:33.816Z,93.16
2022-09-11T02:02:43.894Z,93.16
2022-09-11T02:02:53.954Z,93.16
2022-09-11T02:03:04.005Z,93.16
2022-09-11T02:03:14.086Z,93.16
2022-09-11T02:03:24.135Z,93.16
2022-09-11T02:03:34.195Z,93.26
2022-09-11T02:03:44.253Z,93.26
2022-09-11T02:03:54.315Z,93.26
2022-09-11T02:04:04.375Z,93.26
2022-09-11T02:04:14.460Z,93.26
2022-09-11T02:04:24.538Z,93.26
2022-09-11T02:04:34.603Z,93.26
2022-09-11T02:04:44.655Z,93.26
2022-09-11T02:04:54.814Z,93.26
2022-09-11T02:05:04.875Z,93.26
2022-09-11T02:05:14.925Z,93.26
2022-09-11T02:05:25.001Z,93.26
2022-09-11T02:05:35.056Z,93.26
2022-09-11T02:05:45.124Z,93.37
2022-09-11T02:05:55.195Z,93.37
2022-09-11T02:06:05.245Z,93.37
2022-09-11T02:06:15.305Z,93.37
2022-09-11T02:06:25.375Z,93.37
2022-09-11T02:06:35.433Z,93.37
2022-09-11T02:06:45.483Z,93.46
2022-09-11T02:06:55.556Z,93.46
2022-09-11T02:07:05.624Z,93.46
2022-09-11T02:07:15.694Z,93.46
2022-09-11T02:07:25.806Z,93.46
2022-09-11T02:07:35.873Z,93.37
2022-09-11T02:07:45.954Z,93.37
2022-09-11T02:07:56.015Z,93.37
2022-09-11T02:08:06.076Z,93.37
2022-09-11T02:08:16.133Z,93.37
2022-09-11T02:08:26.185Z,93.37
2022-09-11T02:08:36.236Z,93.37
2022-09-11T02:08:46.293Z,93.37
2022-09-11T02:08:56.353Z,93.37
2022-09-11T02:09:06.396Z,93.37
2022-09-11T02:09:16.485Z,93.37
2022-09-11T02:09:26.536Z,93.37
2022-09-11T02:09:36.596Z,93.37
2022-09-11T02:09:46.663Z,93.37